createdAt,value
2022-10-11T00:05:03.974Z,4.1
2022-10-11T00:10:47.793Z,4.5
2022-10-11T00:16:45.062Z,4
2022-10-11T00:22:29.194Z,5.4
2022-10-11T00:28:18.486Z,6.5
2022-10-11T00:34:13.169Z,5.1
2022-10-11T00:40:04.923Z,4.6
2022-10-11T00:46:15.477Z,4.5
2022-10-11T00:52:00.575Z,4.8
2022-10-11T00:57:55.235Z,5.3
2022-10-11T01:03:42.312Z,5
2022-10-11T01:09:33.810Z,6.4
2022-10-11T01:15:25.293Z,5
2022-10-11T01:21:20.357Z,3.7
2022-10-11T01:27:17.958Z,4.4
2022-10-11T01:33:16.596Z,4.2
2022-10-11T01:39:02.068Z,3.6
2022-10-11T01:44:47.506Z,4.3
2022-10-11T01:50:39.242Z,3.6
2022-10-11T01:56:30.553Z,3.4
2022-10-11T02:02:20.619Z,5.3
2022-10-11T02:08:07.938Z,4.6
2022-10-11T02:13:56.314Z,4.9
2022-10-11T02:19:43.035Z,5.5
2022-10-11T02:25:29.190Z,3.7
2022-10-11T02:31:14.206Z,4.1
2022-10-11T02:37:01.268Z,4.1
2022-10-11T02:42:47.559Z,3.3
2022-10-11T02:48:31.319Z,3.2
2022-10-11T02:54:14.797Z,4.4
2022-10-11T02:59:58.051Z,5.7
2022-10-11T03:05:41.303Z,4.9
2022-10-11T03:11:24.750Z,4.5
2022-10-11T03:17:35.951Z,4.3
2022-10-11T03:23:11.474Z,4.4
2022-10-11T03:28:54.989Z,3.5
2022-10-11T03:34:38.103Z,4
2022-10-11T03:40:22.284Z,3.9
2022-10-11T03:46:07.306Z,4
2022-10-11T03:51:51.034Z,5.3
2022-10-11T03:57:34.177Z,4.8
2022-10-11T04:03:17.625Z,7.2
2022-10-11T04:09:00.684Z,4.1
2022-10-11T04:14:43.976Z,5.7
2022-10-11T04:20:27.358Z,5.5
2022-10-11T04:26:11.443Z,4.7
2022-10-11T04:31:54.745Z,4.9
2022-10-11T04:37:38.057Z,6.4
2022-10-11T04:43:21.319Z,6
2022-10-11T04:49:04.589Z,4.9
2022-10-11T04:54:48.057Z,5.1
2022-10-11T05:00:31.335Z,4.3
2022-10-11T05:06:16.001Z,5
2022-10-11T05:11:59.251Z,5.6
2022-10-11T05:17:42.512Z,4.1
2022-10-11T05:23:27.457Z,6.9
2022-10-11T05:29:10.716Z,5.6
2022-10-11T05:34:53.874Z,6
2022-10-11T05:40:37.294Z,4.5
2022-10-11T05:46:20.369Z,4.4
2022-10-11T05:52:04.579Z,5.4
2022-10-11T05:57:47.879Z,5.1
2022-10-11T06:03:31.344Z,4.1
2022-10-11T06:09:15.022Z,4.3
2022-10-11T06:14:58.455Z,6.7
2022-10-11T06:20:41.702Z,4.7
2022-10-11T06:26:25.026Z,4.7
2022-10-11T06:32:08.336Z,6.2
2022-10-11T06:37:51.639Z,6.6
2022-10-11T06:43:34.843Z,6.2
2022-10-11T06:49:25.398Z,5.2
2022-10-11T06:55:09.106Z,4.5
2022-10-11T07:00:52.403Z,4.4
2022-10-11T07:06:38.697Z,4.6
2022-10-11T07:12:21.917Z,6.3
2022-10-11T07:18:05.410Z,5.8
2022-10-11T07:23:49.833Z,5.8
2022-10-11T07:29:33.092Z,5.5
2022-10-11T07:35:16.283Z,4.4
2022-10-11T07:40:59.518Z,6.4
2022-10-11T07:46:43.037Z,5.8
2022-10-11T07:52:26.407Z,4.8
2022-10-11T07:58:09.814Z,5.2
2022-10-11T08:03:53.719Z,5.6
2022-10-11T08:09:37.179Z,5.3
2022-10-11T08:15:20.458Z,6
2022-10-11T08:21:07.553Z,6.1
2022-10-11T08:26:50.839Z,4.4
2022-10-11T08:32:35.688Z,5.1
2022-10-11T08:38:19.402Z,4.7
2022-10-11T08:44:06.708Z,4.4
2022-10-11T08:49:49.978Z,7.4
2022-10-11T08:55:36.781Z,7.4
2022-10-11T09:01:21.831Z,5.2
2022-10-11T09:07:10.559Z,5.7
2022-10-11T09:12:59.051Z,6.2
2022-10-11T09:18:48.969Z,3.9
2022-10-11T09:24:44.796Z,6.8
2022-10-11T09:30:28.231Z,5.7
2022-10-11T09:36:16.797Z,4.2
2022-10-11T09:42:02.513Z,4.4
2022-10-11T09:47:45.686Z,5
2022-10-11T09:53:41.341Z,5.3
2022-10-11T09:59:32.080Z,4.3
2022-10-11T10:05:23.070Z,5.9
2022-10-11T10:11:08.096Z,4.1
2022-10-11T10:16:56.433Z,4.5
2022-10-11T10:22:40.036Z,5.6
2022-10-11T10:28:25.181Z,4.9
2022-10-11T10:34:13.339Z,6.4
2022-10-11T10:39:59.301Z,4.4
2022-10-11T10:45:46.636Z,4.3
2022-10-11T10:51:32.920Z,3.9
2022-10-11T10:57:20.334Z,4.7
2022-10-11T11:03:04.611Z,6.1
2022-10-11T11:08:56.058Z,3.8
2022-10-11T11:14:47.902Z,4.4
2022-10-11T11:20:43.077Z,4.1
2022-10-11T11:26:30.381Z,3.6
2022-10-11T11:32:25.416Z,4
2022-10-11T11:38:13.629Z,3.9
2022-10-11T11:44:03.622Z,5.5
2022-10-11T11:49:48.793Z,3.4
2022-10-11T11:55:34.733Z,3.9
2022-10-11T12:01:31.295Z,4.9
2022-10-11T12:07:19.934Z,4.1
2022-10-11T12:13:11.587Z,5.4
2022-10-11T12:19:00.867Z,5.5
2022-10-11T12:24:58.403Z,4.1
2022-10-11T12:31:03.072Z,5.4
2022-10-11T12:36:47.059Z,4.8
2022-10-11T12:42:32.040Z,3.2
2022-10-11T12:48:42.038Z,5.2
2022-10-11T12:54:50.906Z,5.1
2022-10-11T13:00:35.557Z,3.2
2022-10-11T13:06:20.452Z,3.7
2022-10-11T13:12:06.597Z,4.2
2022-10-11T13:17:50.196Z,3.6
2022-10-11T13:23:38.214Z,3.2
2022-10-11T13:29:25.699Z,5
2022-10-11T13:35:14.438Z,4.5
2022-10-11T13:40:57.922Z,3.9
2022-10-11T13:46:44.411Z,4.3
2022-10-11T13:52:27.797Z,4.7
2022-10-11T13:58:21.840Z,4.3
2022-10-11T14:04:06.835Z,4.2
2022-10-11T14:09:50.103Z,3.9
2022-10-11T14:15:34.782Z,3.3
2022-10-11T14:21:31.441Z,4.9
2022-10-11T14:27:17.417Z,2.8
2022-10-11T14:33:03.505Z,3.9
2022-10-11T14:38:46.781Z,3.8
2022-10-11T14:44:31.316Z,4.4
2022-10-11T14:50:30.159Z,3.7
2022-10-11T14:56:18.998Z,3.7
2022-10-11T15:02:04.057Z,3.1
2022-10-11T15:07:47.594Z,3.9
2022-10-11T15:13:30.794Z,4.5
2022-10-11T15:19:16.260Z,4.4
2022-10-11T15:24:59.796Z,3
2022-10-11T15:30:44.467Z,3.1
2022-10-11T15:36:27.768Z,4.3
2022-10-11T15:42:11.154Z,3.7
2022-10-11T15:47:55.044Z,3.5
2022-10-11T15:53:39.153Z,3.3
2022-10-11T15:59:23.234Z,2.8
2022-10-11T16:05:07.904Z,15.4
2022-10-11T16:10:51.414Z,13.2
2022-10-11T16:16:34.593Z,11.7
2022-10-11T16:22:18.845Z,9
2022-10-11T16:28:02.205Z,15.6
2022-10-11T16:33:45.649Z,23.9
2022-10-11T16:39:29.043Z,25.1
2022-10-11T16:45:13.594Z,23
2022-10-11T16:51:04.303Z,20.3
2022-10-11T16:56:47.582Z,21.9
2022-10-11T17:02:35.099Z,23.2
2022-10-11T17:08:18.443Z,18.2
2022-10-11T17:14:02.291Z,16.2
2022-10-11T17:19:48.418Z,15.6
2022-10-11T17:25:31.823Z,17.1
2022-10-11T17:31:15.195Z,16.7
2022-10-11T17:36:58.640Z,16.8
2022-10-11T17:42:42.321Z,15.5
2022-10-11T17:48:25.831Z,13
2022-10-11T17:54:09.553Z,14.9
2022-10-11T17:59:53.145Z,14.9
2022-10-11T18:05:40.679Z,13.6
2022-10-11T18:11:24.153Z,11.4
2022-10-11T18:17:07.279Z,12.7
2022-10-11T18:22:51.482Z,10.3
2022-10-11T18:28:35.121Z,11.4
2022-10-11T18:34:19.071Z,10.4
2022-10-11T18:40:02.436Z,10.1
2022-10-11T18:45:45.799Z,10.9
2022-10-11T18:51:29.799Z,9.6
2022-10-11T18:57:13.101Z,10.2
2022-10-11T19:02:56.283Z,10.9
2022-10-11T19:08:39.405Z,9.1
2022-10-11T19:14:23.705Z,8.2
2022-10-11T19:20:07.707Z,9.6
2022-10-11T19:25:51.190Z,8.9
2022-10-11T19:31:35.214Z,8.9
2022-10-11T19:37:18.857Z,8.7
2022-10-11T19:43:02.000Z,9.1
2022-10-11T19:48:45.605Z,11
2022-10-11T19:54:29.593Z,10.5
2022-10-11T20:00:13.850Z,9.3
2022-10-11T20:05:58.033Z,9.1
2022-10-11T20:11:42.893Z,9.5
2022-10-11T20:17:26.669Z,10.7
2022-10-11T20:23:11.744Z,8.9
2022-10-11T20:28:58.968Z,11.7
2022-10-11T20:34:42.486Z,12.2
2022-10-11T20:40:25.794Z,9.7
2022-10-11T20:46:10.275Z,12
2022-10-11T20:51:53.619Z,10.7
2022-10-11T20:57:39.430Z,11.6
2022-10-11T21:03:24.398Z,10.9
2022-10-11T21:09:16.367Z,8.9
2022-10-11T21:15:00.358Z,10.3
2022-10-11T21:20:44.370Z,8.8
2022-10-11T21:26:27.663Z,9.3
2022-10-11T21:32:16.382Z,8.8
2022-10-11T21:38:00.898Z,9.5
2022-10-11T21:43:44.242Z,8.7
2022-10-11T21:49:27.743Z,8.1
2022-10-11T21:55:11.219Z,11
2022-10-11T22:00:54.761Z,10.2
2022-10-11T22:06:38.077Z,12.4
2022-10-11T22:12:21.326Z,8
2022-10-11T22:18:05.146Z,14
2022-10-11T22:23:49.302Z,9.7
2022-10-11T22:29:36.891Z,9
2022-10-11T22:35:20.095Z,9.7
2022-10-11T22:41:03.944Z,10
2022-10-11T22:46:47.184Z,9.1
2022-10-11T22:52:30.643Z,10
2022-10-11T22:58:13.843Z,9.7
2022-10-11T23:03:57.203Z,8.1
2022-10-11T23:09:40.634Z,8.4
2022-10-11T23:15:24.238Z,10.2
2022-10-11T23:21:08.409Z,8.4
2022-10-11T23:26:51.454Z,8.7
2022-10-11T23:32:34.818Z,9.7
2022-10-11T23:38:18.278Z,8
2022-10-11T23:44:01.713Z,6.5
2022-10-11T23:49:44.841Z,8.3
2022-10-11T23:55:28.015Z,8.1
